Time;durP1;ratioP1;P1;durP2;ratioP2;P2;SDS_P1;SDS_P2;PMS_P1;PMS_P2;Temp;Humidity;BMP_temperature;BMP_pressure;BME280_temperature;BME280_humidity;BME280_pressure;Samples;Min_cycle;Max_cycle;Signal;HPM_P1;HPM_P2
2021/12/04 00:00:01;;;;;;;19.95;15.30;;;4.60;99.90;;;;;;5012981;28;20025;-78
2021/12/04 00:02:27;;;;;;;18.17;14.48;;;4.60;99.90;;;;;;5009147;28;20041;-77
2021/12/04 00:04:54;;;;;;;20.33;15.43;;;4.60;99.90;;;;;;5024392;28;20380;-78
2021/12/04 00:07:22;;;;;;;20.15;14.65;;;4.60;99.90;;;;;;5025826;28;20029;-78
2021/12/04 00:09:50;;;;;;;21.05;15.48;;;4.60;99.90;;;;;;5024533;28;20009;-78
2021/12/04 00:12:17;;;;;;;20.75;16.17;;;4.50;99.90;;;;;;5020734;28;20025;-78
2021/12/04 00:14:43;;;;;;;20.27;15.23;;;4.50;99.90;;;;;;5016915;28;20034;-78
2021/12/04 00:17:09;;;;;;;22.95;15.70;;;4.50;99.90;;;;;;5015073;28;20075;-79
2021/12/04 00:19:35;;;;;;;21.52;16.55;;;4.50;99.90;;;;;;5016408;28;20048;-78
2021/12/04 00:22:01;;;;;;;26.17;16.48;;;4.50;99.90;;;;;;5029488;28;20460;-78
2021/12/04 00:24:27;;;;;;;22.05;15.10;;;4.50;99.90;;;;;;5029420;28;20477;-78
2021/12/04 00:26:53;;;;;;;25.38;17.08;;;4.50;99.90;;;;;;5041530;28;20036;-78
2021/12/04 00:29:20;;;;;;;24.65;16.73;;;4.50;99.90;;;;;;5026430;28;20080;-78
2021/12/04 00:31:49;;;;;;;22.27;16.42;;;4.50;99.90;;;;;;5017257;28;20025;-78
2021/12/04 00:34:16;;;;;;;23.98;16.40;;;4.50;99.90;;;;;;5024815;28;20022;-78
2021/12/04 00:50:07;;;;;;;23.42;16.83;;;4.50;99.90;;;;;;5019060;28;20128;-78
2021/12/04 00:52:33;;;;;;;28.17;18.45;;;4.50;99.90;;;;;;5028541;28;20033;-78
2021/12/04 00:54:58;;;;;;;26.92;19.20;;;4.60;99.90;;;;;;5016380;28;20034;-78
2021/12/04 00:57:24;;;;;;;27.38;18.15;;;4.60;99.90;;;;;;5016320;28;20030;-78
2021/12/04 00:59:49;;;;;;;22.60;16.83;;;4.60;99.90;;;;;;5039183;28;20024;-77
2021/12/04 01:02:18;;;;;;;25.05;16.95;;;4.60;99.90;;;;;;5021479;28;20542;-78
2021/12/04 01:04:44;;;;;;;27.55;17.88;;;4.50;99.90;;;;;;5023214;28;20025;-78
2021/12/04 01:07:09;;;;;;;27.98;18.90;;;4.50;99.90;;;;;;5034136;28;20109;-78
2021/12/04 01:09:36;;;;;;;26.20;18.50;;;4.50;99.90;;;;;;5024995;28;20472;-78
2021/12/04 01:12:02;;;;;;;29.50;18.40;;;4.50;99.90;;;;;;5015254;28;20021;-78
2021/12/04 01:14:28;;;;;;;27.67;18.35;;;4.50;99.90;;;;;;5019032;28;20026;-77
2021/12/04 01:16:54;;;;;;;29.83;19.70;;;4.50;99.90;;;;;;5023446;28;20557;-78
2021/12/04 01:19:21;;;;;;;26.20;18.58;;;4.50;99.90;;;;;;5021972;28;20075;-78
2021/12/04 01:21:49;;;;;;;26.20;18.58;;;4.50;99.90;;;;;;5015606;28;20021;-77
2021/12/04 01:24:15;;;;;;;30.23;18.83;;;4.60;99.90;;;;;;5014909;28;20075;-78
2021/12/04 01:26:40;;;;;;;24.30;17.60;;;4.60;99.90;;;;;;5022894;28;20027;-78
2021/12/04 01:29:06;;;;;;;30.08;19.10;;;4.60;99.90;;;;;;5026664;28;20876;-77
2021/12/04 01:31:32;;;;;;;28.27;19.40;;;4.60;99.90;;;;;;5020908;28;21156;-78
2021/12/04 01:33:58;;;;;;;29.90;20.40;;;4.50;99.90;;;;;;5031762;28;20037;-78
2021/12/04 01:36:24;;;;;;;27.10;19.27;;;4.60;99.90;;;;;;5026987;28;20025;-78
2021/12/04 01:38:50;;;;;;;29.25;20.08;;;4.60;99.90;;;;;;5025049;28;20486;-78
2021/12/04 01:41:16;;;;;;;28.90;18.88;;;4.60;99.90;;;;;;5021862;28;20034;-78
2021/12/04 01:43:42;;;;;;;27.65;19.48;;;4.60;99.90;;;;;;5015921;28;20480;-78
2021/12/04 01:46:08;;;;;;;29.45;19.73;;;4.60;99.90;;;;;;5015093;28;20070;-78
2021/12/04 01:48:34;;;;;;;30.65;19.00;;;4.60;99.90;;;;;;5016292;28;22414;-78
2021/12/04 01:51:00;;;;;;;30.15;20.45;;;4.60;99.90;;;;;;5025967;28;20089;-77
2021/12/04 01:53:26;;;;;;;32.55;21.08;;;4.60;99.90;;;;;;5016698;28;20427;-78
2021/12/04 01:55:54;;;;;;;26.73;19.48;;;4.60;99.90;;;;;;5020040;28;20464;-77
2021/12/04 01:58:20;;;;;;;33.67;20.98;;;4.60;99.90;;;;;;5032350;28;20026;-77
2021/12/04 02:00:45;;;;;;;32.55;21.73;;;4.60;99.90;;;;;;5029294;28;20480;-78
2021/12/04 02:03:13;;;;;;;32.13;20.95;;;4.60;99.90;;;;;;5016680;28;20042;-78
2021/12/04 02:05:40;;;;;;;32.63;21.38;;;4.60;99.90;;;;;;5018145;28;20061;-78
2021/12/04 02:08:07;;;;;;;31.77;20.13;;;4.60;99.90;;;;;;5025152;28;20400;-77
2021/12/04 02:10:33;;;;;;;33.00;21.10;;;4.60;99.90;;;;;;5021531;28;20611;-77
2021/12/04 02:12:59;;;;;;;35.15;23.10;;;4.60;99.90;;;;;;5015166;28;20415;-77
2021/12/04 02:15:25;;;;;;;38.47;23.80;;;4.60;99.90;;;;;;5018062;28;20034;-77
2021/12/04 02:17:51;;;;;;;30.95;19.35;;;4.60;99.90;;;;;;5020646;28;20508;-77
2021/12/04 02:20:23;;;;;;;31.30;19.67;;;4.60;99.90;;;;;;5016919;28;20057;-77
2021/12/04 02:22:49;;;;;;;30.05;19.35;;;4.50;99.90;;;;;;5019885;28;20400;-77
2021/12/04 02:25:15;;;;;;;30.25;19.40;;;4.50;99.90;;;;;;5018876;28;20036;-77
2021/12/04 02:27:42;;;;;;;29.45;19.63;;;4.50;99.90;;;;;;5014559;28;20018;-78
2021/12/04 02:30:11;;;;;;;28.15;18.63;;;4.50;99.90;;;;;;5020415;28;20052;-78
2021/12/04 02:32:37;;;;;;;27.58;18.58;;;4.60;99.90;;;;;;5027926;28;20037;-77
2021/12/04 02:35:05;;;;;;;27.38;17.52;;;4.50;99.90;;;;;;5018777;28;21004;-77
2021/12/04 02:37:32;;;;;;;25.98;17.45;;;4.50;99.90;;;;;;5027821;28;20476;-77
2021/12/04 02:39:59;;;;;;;31.52;18.30;;;4.50;99.90;;;;;;5018342;28;20541;-76
2021/12/04 02:42:30;;;;;;;28.95;18.70;;;4.50;99.90;;;;;;5020749;28;20041;-77
2021/12/04 02:45:02;;;;;;;28.77;18.23;;;4.50;99.90;;;;;;5021867;28;20038;-77
2021/12/04 02:47:28;;;;;;;23.13;16.80;;;4.50;99.90;;;;;;5021009;28;20051;-77
2021/12/04 02:49:55;;;;;;;26.25;17.42;;;4.50;99.90;;;;;;5023366;28;20021;-77
2021/12/04 02:52:22;;;;;;;27.70;17.50;;;4.60;99.90;;;;;;5013031;28;20042;-77
2021/12/04 02:54:49;;;;;;;29.02;17.48;;;4.60;99.90;;;;;;5031556;28;20025;-77
2021/12/04 02:57:17;;;;;;;27.98;17.73;;;4.60;99.90;;;;;;5032342;28;20100;-77
2021/12/04 02:59:45;;;;;;;30.35;17.65;;;4.60;99.90;;;;;;5026508;28;20029;-77
2021/12/04 03:02:19;;;;;;;27.23;17.42;;;4.60;99.90;;;;;;5016368;28;20025;-77
2021/12/04 03:04:47;;;;;;;31.10;18.52;;;4.60;99.90;;;;;;5020379;28;20025;-77
2021/12/04 03:07:14;;;;;;;27.05;16.77;;;4.60;99.90;;;;;;5025118;28;20025;-77
2021/12/04 03:09:39;;;;;;;28.00;17.58;;;4.60;99.90;;;;;;5014502;28;20037;-77
2021/12/04 03:12:06;;;;;;;29.23;17.17;;;4.60;99.90;;;;;;5013111;28;20022;-77
2021/12/04 03:14:33;;;;;;;29.40;16.10;;;4.60;99.90;;;;;;5018171;28;20096;-77
2021/12/04 03:16:58;;;;;;;29.00;15.55;;;4.60;99.90;;;;;;5015992;28;20041;-78
2021/12/04 03:19:25;;;;;;;28.23;16.63;;;4.60;99.90;;;;;;5023914;28;20018;-78
2021/12/04 03:21:51;;;;;;;28.55;17.88;;;4.60;99.90;;;;;;5017186;28;20025;-77
2021/12/04 03:24:18;;;;;;;29.10;16.42;;;4.60;99.90;;;;;;5021567;28;20452;-77
2021/12/04 03:26:46;;;;;;;30.00;17.05;;;4.70;99.90;;;;;;5025039;28;20021;-78
2021/12/04 03:29:16;;;;;;;28.25;16.45;;;4.70;99.90;;;;;;5030361;28;20030;-77
2021/12/04 03:42:32;;;;;;;42.03;19.70;;;4.70;99.90;;;;;;5019421;28;20033;-77
2021/12/04 03:44:58;;;;;;;39.60;18.60;;;4.70;99.90;;;;;;5021647;28;20026;-77
2021/12/04 03:47:23;;;;;;;40.38;20.50;;;4.80;99.90;;;;;;5027393;28;20038;-77
2021/12/04 03:49:50;;;;;;;41.47;20.55;;;4.70;99.90;;;;;;5023325;28;20100;-77
2021/12/04 03:52:16;;;;;;;42.33;20.70;;;4.80;99.90;;;;;;5015236;28;20037;-77
2021/12/04 03:54:43;;;;;;;45.42;21.05;;;4.80;99.90;;;;;;5026405;28;20026;-77
2021/12/04 03:57:12;;;;;;;44.45;20.58;;;4.80;99.90;;;;;;5013870;28;20484;-76
2021/12/04 03:59:40;;;;;;;49.92;21.65;;;4.80;99.90;;;;;;5013556;28;20475;-77
2021/12/04 04:02:08;;;;;;;42.70;20.33;;;4.80;99.90;;;;;;5012062;28;20041;-77
2021/12/04 04:04:34;;;;;;;46.33;21.45;;;4.80;99.90;;;;;;5027432;28;20026;-77
2021/12/04 04:07:00;;;;;;;45.22;21.15;;;4.80;99.90;;;;;;5026778;28;22939;-77
2021/12/04 04:09:27;;;;;;;35.22;19.38;;;4.80;99.90;;;;;;5019781;28;20434;-76
2021/12/04 04:11:52;;;;;;;42.88;20.70;;;4.80;99.90;;;;;;5019618;28;20411;-77
2021/12/04 04:14:18;;;;;;;46.65;19.85;;;4.80;99.90;;;;;;5016956;28;20033;-77
2021/12/04 04:16:43;;;;;;;39.08;19.27;;;4.80;99.90;;;;;;5027262;28;20026;-77
2021/12/04 04:19:10;;;;;;;43.15;19.90;;;4.80;99.90;;;;;;5018290;28;20045;-77
2021/12/04 04:21:42;;;;;;;43.45;20.88;;;4.80;99.90;;;;;;5019280;28;20075;-76
2021/12/04 04:24:09;;;;;;;34.75;17.85;;;4.80;99.90;;;;;;5023748;28;20423;-76
2021/12/04 04:26:36;;;;;;;39.60;18.65;;;4.70;99.90;;;;;;5017246;28;20030;-76
2021/12/04 04:29:01;;;;;;;45.45;20.05;;;4.70;99.90;;;;;;5027075;28;20064;-76
2021/12/04 04:31:28;;;;;;;37.78;18.80;;;4.80;99.90;;;;;;5024833;28;20428;-76
2021/12/04 04:34:00;;;;;;;37.65;19.08;;;4.70;99.90;;;;;;5021992;28;20071;-76
2021/12/04 04:39:28;;;;;;;39.85;18.80;;;4.70;99.90;;;;;;5017974;28;20483;-76
2021/12/04 05:02:00;;;;;;;28.20;15.48;;;4.80;99.90;;;;;;4998224;28;20033;-77
2021/12/04 05:12:57;;;;;;;30.25;15.40;;;4.80;99.90;;;;;;5012285;28;20080;-76
2021/12/04 05:15:54;;;;;;;37.75;15.75;;;4.80;99.90;;;;;;5016999;28;20388;-76
2021/12/04 05:21:06;;;;;;;33.50;14.65;;;4.80;99.90;;;;;;5027859;28;20475;-76
2021/12/04 05:23:38;;;;;;;37.20;16.35;;;4.80;99.90;;;;;;5024890;28;20025;-76
2021/12/04 05:26:07;;;;;;;32.70;15.45;;;4.80;99.90;;;;;;5014734;28;20498;-76
2021/12/04 05:28:33;;;;;;;41.67;15.68;;;4.80;99.90;;;;;;5015914;28;20118;-76
2021/12/04 05:30:59;;;;;;;35.58;15.10;;;4.80;99.90;;;;;;5023058;28;20104;-77
2021/12/04 05:33:25;;;;;;;31.38;15.48;;;4.80;99.90;;;;;;5034190;28;20025;-77
2021/12/04 05:35:52;;;;;;;34.03;16.02;;;4.80;99.90;;;;;;5032469;28;20033;-77
2021/12/04 05:38:18;;;;;;;30.73;14.48;;;4.80;99.90;;;;;;5027854;28;20117;-77
2021/12/04 05:40:45;;;;;;;34.67;15.35;;;4.80;99.90;;;;;;5025399;28;20467;-76
2021/12/04 05:43:11;;;;;;;25.63;12.57;;;4.80;99.90;;;;;;5022503;28;20061;-77
2021/12/04 05:45:46;;;;;;;24.00;12.23;;;4.80;99.90;;;;;;5027469;28;20037;-76
2021/12/04 05:48:26;;;;;;;26.77;12.88;;;4.80;99.90;;;;;;5014482;28;20034;-76
2021/12/04 05:51:05;;;;;;;29.67;11.95;;;4.80;99.90;;;;;;5021781;28;20029;-77
2021/12/04 05:53:43;;;;;;;26.15;11.63;;;4.80;99.90;;;;;;5028012;28;20033;-77
2021/12/04 05:56:09;;;;;;;24.70;9.77;;;4.80;99.90;;;;;;5025261;28;20029;-77
2021/12/04 05:58:35;;;;;;;22.08;8.40;;;4.80;99.90;;;;;;5020802;28;20038;-77
2021/12/04 06:01:05;;;;;;;17.20;8.80;;;4.80;99.90;;;;;;5021704;28;20040;-78
2021/12/04 06:03:31;;;;;;;14.02;8.05;;;4.80;99.90;;;;;;5027788;28;20399;-77
2021/12/04 06:05:58;;;;;;;14.02;7.85;;;4.80;99.90;;;;;;5018024;28;20026;-77
2021/12/04 06:08:23;;;;;;;13.18;7.82;;;4.80;99.90;;;;;;5020067;28;20029;-77
2021/12/04 06:10:50;;;;;;;16.83;9.32;;;4.80;99.90;;;;;;5029566;28;20013;-77
2021/12/04 06:13:16;;;;;;;15.02;8.13;;;4.80;99.90;;;;;;5026384;28;20054;-77
2021/12/04 06:15:42;;;;;;;15.43;8.85;;;4.80;99.90;;;;;;5032947;28;20390;-77
2021/12/04 06:18:08;;;;;;;15.38;9.15;;;4.80;99.90;;;;;;5019183;28;20038;-77
2021/12/04 06:23:19;;;;;;;14.13;9.00;;;4.80;99.90;;;;;;5016696;28;20036;-77
2021/12/04 06:25:45;;;;;;;15.35;8.85;;;4.80;99.90;;;;;;5025030;28;20100;-77
2021/12/04 06:28:11;;;;;;;19.40;9.50;;;4.80;99.90;;;;;;5014208;28;20046;-77
2021/12/04 06:30:39;;;;;;;14.02;8.32;;;4.80;99.90;;;;;;5021326;28;20025;-77
2021/12/04 06:33:09;;;;;;;18.40;9.65;;;4.80;99.90;;;;;;5028530;28;20022;-77
2021/12/04 06:35:39;;;;;;;14.13;8.02;;;4.80;99.90;;;;;;5030705;28;20028;-77
2021/12/04 06:38:05;;;;;;;20.23;9.55;;;4.80;99.90;;;;;;5015693;28;20026;-77
2021/12/04 06:40:31;;;;;;;17.35;9.40;;;4.80;99.90;;;;;;5029103;28;20026;-77
2021/12/04 06:42:58;;;;;;;14.27;9.25;;;4.80;99.90;;;;;;5014939;28;20033;-77
2021/12/04 06:45:26;;;;;;;17.80;10.32;;;4.80;99.90;;;;;;5030417;28;20404;-77
2021/12/04 06:47:56;;;;;;;12.27;8.73;;;4.80;99.90;;;;;;5023844;28;20224;-77
2021/12/04 06:51:06;;;;;;;15.60;9.13;;;4.80;99.90;;;;;;5018636;28;20495;-77
2021/12/04 06:53:29;;;;;;;15.00;9.30;;;4.80;99.90;;;;;;5011415;28;20045;-77
2021/12/04 06:55:58;;;;;;;17.50;9.95;;;4.80;99.90;;;;;;5016517;28;20037;-77
2021/12/04 06:58:26;;;;;;;16.55;10.48;;;4.80;99.90;;;;;;5021202;28;20025;-77
2021/12/04 07:00:53;;;;;;;18.95;11.50;;;4.80;99.90;;;;;;5025788;28;20061;-77
2021/12/04 07:03:18;;;;;;;19.85;10.93;;;4.90;99.90;;;;;;5017346;28;20084;-77
2021/12/04 07:05:44;;;;;;;21.95;12.65;;;4.80;99.90;;;;;;5017823;28;20106;-77
2021/12/04 07:08:10;;;;;;;19.42;10.90;;;4.90;99.90;;;;;;5023125;28;20034;-77
2021/12/04 07:10:37;;;;;;;17.02;10.63;;;4.80;99.90;;;;;;5032870;28;20523;-77
2021/12/04 07:13:03;;;;;;;19.48;12.18;;;4.90;99.90;;;;;;5030718;28;20056;-77
2021/12/04 07:15:31;;;;;;;22.00;11.88;;;4.80;99.90;;;;;;5033977;28;20387;-77
2021/12/04 07:17:58;;;;;;;20.92;13.02;;;4.80;99.90;;;;;;5017976;28;20055;-78
2021/12/04 07:20:23;;;;;;;23.10;12.95;;;4.80;99.90;;;;;;5033476;28;20460;-77
2021/12/04 07:22:49;;;;;;;22.45;12.82;;;4.80;99.90;;;;;;5024902;28;20057;-78
2021/12/04 07:25:15;;;;;;;27.15;13.80;;;4.80;99.90;;;;;;5021097;28;20407;-77
2021/12/04 07:27:41;;;;;;;22.55;12.65;;;4.80;99.90;;;;;;5017096;28;20033;-78
2021/12/04 07:30:07;;;;;;;28.30;13.45;;;4.80;99.90;;;;;;5009475;28;20460;-78
2021/12/04 07:32:34;;;;;;;29.05;15.20;;;4.80;99.90;;;;;;5030837;28;20057;-77
2021/12/04 07:34:59;;;;;;;28.55;14.32;;;4.80;99.90;;;;;;5031138;28;20069;-77
2021/12/04 07:37:25;;;;;;;31.40;15.75;;;4.80;99.90;;;;;;5021219;28;20087;-77
2021/12/04 07:39:51;;;;;;;25.80;14.48;;;4.80;99.90;;;;;;5020258;28;20562;-78
2021/12/04 07:42:17;;;;;;;28.20;14.93;;;4.80;99.90;;;;;;5029745;28;20044;-78
2021/12/04 07:44:43;;;;;;;28.05;14.00;;;4.80;99.90;;;;;;5022128;28;20116;-78
2021/12/04 07:47:09;;;;;;;25.65;13.45;;;4.80;99.90;;;;;;5025026;28;20103;-77
2021/12/04 07:49:37;;;;;;;24.02;13.48;;;4.90;99.90;;;;;;5024091;28;20049;-78
2021/12/04 07:52:05;;;;;;;26.38;14.35;;;4.90;99.90;;;;;;5026438;28;20033;-77
2021/12/04 07:54:30;;;;;;;25.13;13.95;;;4.90;99.90;;;;;;5022910;28;20029;-78
2021/12/04 07:56:56;;;;;;;25.20;14.88;;;4.90;99.90;;;;;;5013106;28;20030;-78
2021/12/04 07:59:24;;;;;;;25.40;14.65;;;4.90;99.90;;;;;;5021900;28;20396;-77
2021/12/04 08:01:49;;;;;;;25.30;13.93;;;5.00;99.90;;;;;;5023612;28;20112;-78
2021/12/04 08:04:15;;;;;;;23.77;13.50;;;5.00;99.90;;;;;;5020647;28;20113;-77
2021/12/04 08:06:40;;;;;;;24.20;12.98;;;4.90;99.90;;;;;;5017307;28;20032;-78
2021/12/04 08:09:06;;;;;;;22.10;12.98;;;5.00;99.90;;;;;;5022135;28;20034;-78
2021/12/04 08:11:32;;;;;;;23.13;12.68;;;5.00;99.90;;;;;;5033961;28;20391;-79
2021/12/04 08:13:58;;;;;;;26.33;12.73;;;5.00;99.90;;;;;;5016190;28;20113;-79
2021/12/04 08:16:26;;;;;;;24.50;13.82;;;5.10;99.90;;;;;;5023082;28;20108;-77
2021/12/04 08:18:53;;;;;;;28.98;14.38;;;5.10;99.90;;;;;;5025412;28;20026;-79
2021/12/04 08:21:19;;;;;;;24.13;13.50;;;5.10;99.90;;;;;;5015808;28;20041;-78
2021/12/04 08:23:45;;;;;;;25.65;12.45;;;5.10;99.90;;;;;;5013861;28;20471;-78
2021/12/04 08:26:11;;;;;;;24.33;13.10;;;5.10;99.90;;;;;;5028934;28;20037;-77
2021/12/04 08:28:37;;;;;;;31.17;13.90;;;5.10;99.90;;;;;;5028003;28;20476;-78
2021/12/04 08:31:02;;;;;;;26.77;13.75;;;5.10;99.90;;;;;;5020474;28;20101;-78
2021/12/04 08:33:29;;;;;;;22.85;12.82;;;5.10;99.90;;;;;;5016553;28;20029;-79
2021/12/04 08:35:54;;;;;;;25.42;12.82;;;5.10;99.90;;;;;;5017331;28;20472;-79
2021/12/04 08:38:20;;;;;;;28.88;13.70;;;5.10;99.90;;;;;;5022696;28;20040;-78
2021/12/04 08:40:46;;;;;;;32.10;14.00;;;5.20;99.90;;;;;;5025008;28;20084;-79
2021/12/04 08:43:13;;;;;;;28.98;13.13;;;5.20;99.90;;;;;;5027868;28;20061;-78
2021/12/04 08:45:40;;;;;;;27.80;13.65;;;5.20;99.90;;;;;;5014989;28;20054;-77
2021/12/04 08:48:06;;;;;;;33.22;13.85;;;5.20;99.90;;;;;;5015312;28;20044;-78
2021/12/04 08:50:33;;;;;;;25.70;13.15;;;5.20;99.90;;;;;;5019475;28;20047;-78
2021/12/04 08:53:01;;;;;;;28.33;12.93;;;5.20;99.90;;;;;;5019278;28;20041;-78
2021/12/04 08:55:28;;;;;;;23.75;11.93;;;5.20;99.90;;;;;;5025558;28;20032;-78
2021/12/04 08:57:54;;;;;;;28.80;13.15;;;5.20;99.90;;;;;;5024045;28;20034;-79
2021/12/04 09:00:24;;;;;;;21.00;11.10;;;5.30;99.90;;;;;;5015869;28;20391;-79
2021/12/04 09:02:51;;;;;;;25.58;11.70;;;5.30;99.90;;;;;;5027503;28;20037;-79
2021/12/04 09:05:19;;;;;;;26.45;11.70;;;5.30;99.90;;;;;;5027657;28;20045;-78
2021/12/04 09:07:45;;;;;;;16.05;8.98;;;5.20;99.90;;;;;;5029382;28;20078;-78
2021/12/04 09:10:12;;;;;;;19.77;10.02;;;5.30;99.90;;;;;;5019687;28;20030;-78
2021/12/04 09:12:39;;;;;;;17.70;9.77;;;5.30;99.90;;;;;;5029827;28;20033;-79
2021/12/04 09:15:07;;;;;;;15.57;9.40;;;5.30;99.90;;;;;;5016168;28;20030;-78
2021/12/04 09:17:32;;;;;;;21.50;12.63;;;5.40;99.90;;;;;;5032645;28;20087;-78
2021/12/04 09:19:58;;;;;;;17.17;10.57;;;5.50;99.90;;;;;;5015408;28;20037;-78
2021/12/04 09:22:33;;;;;;;16.63;10.60;;;5.50;99.90;;;;;;5026406;28;20480;-78
2021/12/04 09:25:00;;;;;;;17.33;11.30;;;5.50;99.90;;;;;;5033688;28;20037;-78
2021/12/04 09:30:43;;;;;;;15.77;10.07;;;5.60;99.90;;;;;;5004369;28;20048;-78
2021/12/04 10:00:43;;;;;;;26.50;14.63;;;5.60;99.90;;;;;;5019680;28;20072;-79
2021/12/04 10:03:30;;;;;;;27.92;14.38;;;5.60;99.90;;;;;;5029518;28;20486;-79
2021/12/04 10:11:23;;;;;;;31.58;14.95;;;5.60;99.90;;;;;;5026030;28;20100;-78
2021/12/04 10:17:52;;;;;;;35.60;15.05;;;5.70;99.90;;;;;;5026516;28;20037;-78
2021/12/04 10:20:23;;;;;;;29.00;14.38;;;5.70;99.90;;;;;;5021737;28;20047;-79
2021/12/04 10:34:00;;;;;;;31.05;14.82;;;5.80;99.90;;;;;;5011406;28;20045;-79
2021/12/04 10:36:40;;;;;;;27.67;13.88;;;5.80;99.90;;;;;;5019504;28;20026;-79
2021/12/04 10:39:09;;;;;;;24.20;13.63;;;5.80;99.90;;;;;;5015835;28;20515;-79
2021/12/04 10:41:39;;;;;;;23.08;13.90;;;5.80;99.90;;;;;;5026486;28;20521;-79
2021/12/04 10:44:18;;;;;;;32.05;15.55;;;5.80;99.90;;;;;;5017069;28;20034;-79
2021/12/04 10:47:05;;;;;;;30.42;15.50;;;5.80;99.90;;;;;;5014637;28;20033;-79
2021/12/04 10:53:30;;;;;;;29.73;15.90;;;5.90;99.90;;;;;;5029124;28;20061;-79
2021/12/04 11:01:26;;;;;;;28.70;16.10;;;5.90;99.90;;;;;;5024076;28;20033;-79
2021/12/04 11:04:01;;;;;;;31.30;17.15;;;5.90;99.90;;;;;;5028134;28;20025;-79
2021/12/04 11:43:04;;;;;;;27.27;17.05;;;5.90;99.90;;;;;;5032075;28;20040;-78
2021/12/04 11:48:40;;;;;;;25.45;16.90;;;6.00;99.90;;;;;;5018293;28;20045;-78
2021/12/04 11:51:11;;;;;;;;;;;6.00;99.90;;;;;;5019711;28;20145;-78
2021/12/04 11:53:36;;;;;;;22.67;14.02;;;5.90;99.90;;;;;;5017461;28;20358;-78
2021/12/04 11:56:03;;;;;;;22.38;15.55;;;5.90;99.90;;;;;;5020995;28;20026;-79
2021/12/04 11:58:40;;;;;;;27.40;17.20;;;5.90;99.90;;;;;;5016360;28;20061;-78
2021/12/04 12:01:19;;;;;;;24.75;15.07;;;5.90;99.90;;;;;;5020728;28;20116;-78
2021/12/04 12:03:54;;;;;;;25.52;16.77;;;5.90;99.90;;;;;;5028850;28;20091;-78
2021/12/04 12:06:39;;;;;;;25.05;16.23;;;5.90;99.90;;;;;;5016463;28;20113;-79
2021/12/04 12:09:07;;;;;;;25.23;16.38;;;5.90;99.90;;;;;;5014145;28;20037;-78
2021/12/04 12:11:34;;;;;;;23.55;15.40;;;5.90;99.90;;;;;;5021969;28;20021;-78
2021/12/04 12:14:06;;;;;;;24.45;17.00;;;5.90;99.90;;;;;;5030953;28;20033;-78
2021/12/04 12:16:37;;;;;;;26.13;16.58;;;6.00;99.90;;;;;;5029584;28;20246;-78
2021/12/04 12:19:25;;;;;;;28.63;15.82;;;6.00;99.90;;;;;;5020735;28;20033;-78
2021/12/04 12:22:01;;;;;;;25.58;15.60;;;6.00;99.90;;;;;;5027573;28;20120;-77
2021/12/04 12:24:52;;;;;;;25.10;16.98;;;6.00;99.90;;;;;;5036919;28;20037;-78
2021/12/04 12:38:46;;;;;;;20.85;14.95;;;6.10;99.90;;;;;;5034796;28;20396;-76
2021/12/04 12:41:32;;;;;;;22.92;14.73;;;6.10;99.90;;;;;;5021944;28;20087;-78
2021/12/04 12:44:35;;;;;;;23.27;15.20;;;6.10;99.90;;;;;;5021861;28;20105;-77
2021/12/04 12:47:05;;;;;;;21.05;14.43;;;6.10;99.90;;;;;;4974669;28;20519;-76
2021/12/04 12:49:38;;;;;;;24.63;15.40;;;6.00;99.90;;;;;;5023923;28;20043;-77
2021/12/04 12:52:13;;;;;;;24.38;16.77;;;6.00;99.90;;;;;;5028575;28;20547;-76
2021/12/04 12:54:43;;;;;;;24.38;17.00;;;6.00;99.90;;;;;;5028202;28;20511;-76
2021/12/04 12:57:15;;;;;;;22.65;16.17;;;6.00;99.90;;;;;;5027527;28;20030;-75
2021/12/04 13:11:37;;;;;;;21.48;15.05;;;6.00;99.90;;;;;;5023818;28;20551;-75
2021/12/04 13:14:20;;;;;;;25.08;15.57;;;6.10;99.90;;;;;;5020681;28;20165;-75
2021/12/04 13:16:50;;;;;;;21.13;14.60;;;6.10;99.90;;;;;;5020852;28;20022;-75
2021/12/04 13:19:19;;;;;;;22.20;15.02;;;6.10;99.90;;;;;;5028926;28;20037;-76
2021/12/04 13:21:48;;;;;;;22.05;14.90;;;6.10;99.90;;;;;;5033265;28;20021;-76
2021/12/04 13:24:15;;;;;;;18.23;14.38;;;6.20;99.90;;;;;;5033140;28;20091;-76
2021/12/04 13:26:49;;;;;;;18.73;14.55;;;6.30;99.90;;;;;;5025519;28;20022;-76
2021/12/04 13:29:19;;;;;;;19.45;13.63;;;6.40;99.90;;;;;;5029453;28;20022;-75
2021/12/04 13:31:45;;;;;;;20.50;13.73;;;6.50;99.90;;;;;;5024219;28;20061;-76
2021/12/04 13:34:20;;;;;;;18.10;13.07;;;6.50;99.90;;;;;;5024341;28;20078;-76
2021/12/04 13:36:46;;;;;;;16.45;12.27;;;6.60;99.90;;;;;;5021588;28;20377;-76
2021/12/04 13:39:14;;;;;;;18.42;12.50;;;6.50;99.90;;;;;;5031854;28;20023;-76
2021/12/04 13:41:42;;;;;;;16.98;12.32;;;6.60;99.90;;;;;;5035256;28;20148;-76
2021/12/04 13:44:10;;;;;;;15.15;12.00;;;6.70;99.90;;;;;;5034711;28;20463;-76
2021/12/04 13:46:47;;;;;;;17.05;12.88;;;6.60;99.90;;;;;;5020060;28;20045;-77
2021/12/04 13:49:16;;;;;;;19.30;12.73;;;6.60;99.90;;;;;;5035713;28;20104;-77
2021/12/04 13:51:42;;;;;;;18.35;13.82;;;6.60;99.90;;;;;;5017094;28;20110;-78
2021/12/04 13:54:09;;;;;;;20.00;14.13;;;6.50;99.90;;;;;;5019121;28;20057;-78
2021/12/04 13:56:35;;;;;;;18.70;13.77;;;6.50;99.90;;;;;;5029751;28;20057;-77
2021/12/04 13:59:04;;;;;;;18.40;13.90;;;6.50;99.90;;;;;;5026101;28;20064;-77
2021/12/04 14:01:39;;;;;;;18.20;13.52;;;6.40;99.90;;;;;;5022831;28;20025;-78
2021/12/04 14:04:07;;;;;;;19.38;13.90;;;6.40;99.90;;;;;;5021998;28;20068;-77
2021/12/04 14:06:32;;;;;;;22.13;15.20;;;6.40;99.90;;;;;;5016999;28;20117;-78
2021/12/04 14:09:07;;;;;;;21.05;14.68;;;6.40;99.90;;;;;;5019998;28;20112;-77
2021/12/04 14:11:39;;;;;;;23.25;15.02;;;6.40;99.90;;;;;;5024786;28;20485;-78
2021/12/04 14:14:17;;;;;;;21.33;15.73;;;6.30;99.90;;;;;;5024333;28;20045;-78
2021/12/04 14:16:44;;;;;;;21.45;15.32;;;6.30;99.90;;;;;;5491466;22;20049;-90
2021/12/04 14:19:27;;;;;;;24.70;16.75;;;6.30;99.90;;;;;;5001248;28;20034;-90
2021/12/04 14:21:59;;;;;;;23.77;16.00;;;6.30;99.90;;;;;;5012906;28;20133;-92
2021/12/04 14:24:35;;;;;;;20.83;15.32;;;6.30;99.90;;;;;;5016434;28;20120;-89
2021/12/04 14:27:03;;;;;;;25.85;17.85;;;6.30;99.90;;;;;;5009648;28;20034;-91
2021/12/04 14:29:35;;;;;;;28.08;16.90;;;6.30;99.90;;;;;;5011284;28;20019;-90
2021/12/04 14:32:02;;;;;;;23.80;16.60;;;6.30;99.90;;;;;;5014842;28;20030;-89
2021/12/04 14:34:30;;;;;;;31.08;18.08;;;6.30;99.90;;;;;;5012366;28;20398;-90
2021/12/04 14:37:05;;;;;;;25.25;16.35;;;6.30;99.90;;;;;;5004839;28;20032;-91
2021/12/04 14:39:31;;;;;;;24.40;16.77;;;6.30;99.90;;;;;;5011224;28;20024;-90
2021/12/04 14:41:57;;;;;;;25.05;16.45;;;6.30;99.90;;;;;;5005024;28;20109;-91
2021/12/04 14:44:23;;;;;;;25.13;16.85;;;6.40;99.90;;;;;;5008832;28;20041;-90
2021/12/04 14:46:50;;;;;;;26.35;16.35;;;6.40;99.90;;;;;;5005363;28;20013;-90
2021/12/04 14:49:16;;;;;;;24.20;16.33;;;6.40;99.90;;;;;;5007244;28;20058;-90
2021/12/04 14:51:41;;;;;;;25.10;17.13;;;6.40;99.90;;;;;;5007093;28;20068;-90
2021/12/04 14:54:08;;;;;;;25.88;16.80;;;6.40;99.90;;;;;;5022039;28;20045;-90
2021/12/04 14:56:34;;;;;;;28.60;17.55;;;6.40;99.90;;;;;;5001345;28;20089;-90
2021/12/04 14:59:01;;;;;;;26.90;17.27;;;6.40;99.90;;;;;;5002281;28;20647;-90
2021/12/04 15:01:32;;;;;;;24.25;15.93;;;6.40;99.90;;;;;;5001349;28;20022;-90
2021/12/04 15:04:01;;;;;;;26.55;17.08;;;6.40;99.90;;;;;;5017592;28;20065;-90
2021/12/04 15:06:30;;;;;;;26.60;16.10;;;6.40;99.90;;;;;;5008611;28;20026;-90
2021/12/04 15:09:14;;;;;;;30.38;17.30;;;6.40;99.90;;;;;;5007648;28;20034;-90
2021/12/04 15:11:44;;;;;;;29.95;17.25;;;6.40;99.90;;;;;;5005108;28;20026;-90
2021/12/04 15:14:15;;;;;;;31.42;17.90;;;6.40;99.90;;;;;;5011154;28;20022;-91
2021/12/04 15:16:51;;;;;;;30.80;17.15;;;6.40;99.90;;;;;;5006936;28;20088;-91
2021/12/04 15:19:27;;;;;;;28.23;16.85;;;6.30;99.90;;;;;;5010786;28;20362;-91
2021/12/04 15:21:57;;;;;;;26.10;15.70;;;6.30;99.90;;;;;;5011553;28;20061;-90
2021/12/04 15:24:32;;;;;;;24.25;14.32;;;6.30;99.90;;;;;;5004435;28;20037;-89
2021/12/04 15:27:03;;;;;;;30.70;15.55;;;6.30;99.90;;;;;;5026902;28;20346;-90
2021/12/04 15:29:30;;;;;;;18.88;11.50;;;6.30;99.90;;;;;;5007998;28;20030;-90
2021/12/04 15:32:00;;;;;;;21.85;11.35;;;6.30;99.90;;;;;;5010360;28;20052;-90
2021/12/04 15:34:33;;;;;;;17.52;9.02;;;6.20;99.90;;;;;;5006331;28;20108;-90
2021/12/04 15:37:03;;;;;;;20.08;10.02;;;6.20;99.90;;;;;;5010630;28;20121;-90
2021/12/04 15:39:34;;;;;;;17.95;9.95;;;6.10;99.90;;;;;;5027020;28;20026;-90
2021/12/04 15:44:55;;;;;;;15.40;7.10;;;6.00;99.90;;;;;;4995125;28;20041;-90
2021/12/04 15:53:09;;;;;;;12.65;5.15;;;5.70;99.90;;;;;;5008500;28;20389;-90
2021/12/04 15:55:42;;;;;;;14.02;6.30;;;5.60;99.90;;;;;;5004741;28;20181;-88
2021/12/04 15:58:12;;;;;;;14.90;6.10;;;5.50;99.90;;;;;;5009762;28;20083;-89